Time;durP1;ratioP1;P1;durP2;ratioP2;P2;SDS_P1;SDS_P2;PMS_P1;PMS_P2;Temp;Humidity;BMP_temperature;BMP_pressure;BME280_temperature;BME280_humidity;BME280_pressure;Samples;Min_cycle;Max_cycle;Signal;HPM_P1;HPM_P2
2023/10/29 00:00:35;;;;;;;8.23;4.68;;;;;;;;;;5059958;28;20121;-81
2023/10/29 00:03:01;;;;;;;7.15;5.47;;;;;;;;;;5063541;28;20495;-81
2023/10/29 00:05:28;;;;;;;10.25;5.43;;;;;;;;;;5065638;28;20507;-81
2023/10/29 00:07:54;;;;;;;6.60;5.05;;;;;;;;;;5049181;28;20048;-81
2023/10/29 00:10:21;;;;;;;7.05;4.95;;;;;;;;;;5048058;28;20119;-82
2023/10/29 00:12:47;;;;;;;9.27;4.80;;;;;;;;;;5062053;28;20040;-82
2023/10/29 00:15:13;;;;;;;10.60;5.32;;;;;;;;;;5065771;28;20047;-81
2023/10/29 00:17:39;;;;;;;6.65;4.70;;;;;;;;;;5049185;28;20094;-82
2023/10/29 00:20:09;;;;;;;9.60;4.95;;;;;;;;;;5048808;28;20139;-82
2023/10/29 00:22:35;;;;;;;6.60;5.25;;;;;;;;;;5045800;28;20037;-81
2023/10/29 00:25:01;;;;;;;7.13;4.93;;;;;;;;;;5033531;28;20513;-79
2023/10/29 00:27:27;;;;;;;9.85;5.97;;;;;;;;;;5063545;28;20043;-80
2023/10/29 00:29:53;;;;;;;8.95;5.45;;;;;;;;;;5065617;28;20392;-80
2023/10/29 00:32:19;;;;;;;9.57;5.32;;;;;;;;;;5065424;28;20055;-81
2023/10/29 00:34:46;;;;;;;9.63;5.25;;;;;;;;;;5065096;28;20455;-81
2023/10/29 00:37:12;;;;;;;12.15;4.95;;;;;;;;;;5045580;28;20488;-80
2023/10/29 00:39:39;;;;;;;7.45;5.93;;;;;;;;;;5067649;28;20048;-81
2023/10/29 00:42:05;;;;;;;8.85;5.07;;;;;;;;;;5064808;28;20136;-80
2023/10/29 00:44:31;;;;;;;7.30;5.28;;;;;;;;;;5069199;28;20042;-80
2023/10/29 00:46:57;;;;;;;9.13;5.30;;;;;;;;;;5051015;28;20033;-81
2023/10/29 00:49:24;;;;;;;8.18;5.00;;;;;;;;;;5068826;28;20074;-81
2023/10/29 00:51:50;;;;;;;7.63;5.20;;;;;;;;;;5048765;28;20037;-81
2023/10/29 00:54:16;;;;;;;7.75;5.10;;;;;;;;;;5052110;28;20084;-79
2023/10/29 00:56:42;;;;;;;12.48;5.78;;;;;;;;;;5052060;28;20037;-80
2023/10/29 00:59:11;;;;;;;8.55;5.20;;;;;;;;;;5051460;28;20095;-79
2023/10/29 01:01:38;;;;;;;10.30;5.40;;;;;;;;;;5066372;28;20211;-78
2023/10/29 01:04:04;;;;;;;6.53;5.20;;;;;;;;;;5034013;28;20035;-79
2023/10/29 01:06:38;;;;;;;6.65;4.68;;;;;;;;;;5067102;28;20553;-78
2023/10/29 01:09:04;;;;;;;;;;;;;;;;;;5051053;28;20540;-79
2023/10/29 01:11:30;;;;;;;9.55;5.85;;;;;;;;;;5067236;28;20026;-79
2023/10/29 01:13:56;;;;;;;7.40;5.45;;;;;;;;;;5046779;28;20044;-79
2023/10/29 01:16:22;;;;;;;7.50;6.15;;;;;;;;;;5033134;28;20066;-80
2023/10/29 01:18:48;;;;;;;9.50;6.10;;;;;;;;;;5050499;28;20036;-79
2023/10/29 01:21:16;;;;;;;13.40;6.57;;;;;;;;;;5050334;28;20063;-80
2023/10/29 01:23:42;;;;;;;10.70;6.05;;;;;;;;;;5049299;28;20062;-80
2023/10/29 01:26:08;;;;;;;6.35;5.72;;;;;;;;;;5030810;28;20044;-80
2023/10/29 01:28:34;;;;;;;6.30;5.70;;;;;;;;;;5049706;28;20036;-80
2023/10/29 01:31:00;;;;;;;7.07;5.78;;;;;;;;;;5046337;28;20033;-80
2023/10/29 01:33:26;;;;;;;7.35;6.00;;;;;;;;;;5049397;28;20046;-80
2023/10/29 01:35:53;;;;;;;7.18;6.18;;;;;;;;;;5047628;28;20044;-80
2023/10/29 01:38:19;;;;;;;9.43;5.78;;;;;;;;;;5066120;28;20041;-79
2023/10/29 01:40:45;;;;;;;8.57;6.70;;;;;;;;;;5064346;28;20040;-80
2023/10/29 01:43:11;;;;;;;9.82;7.38;;;;;;;;;;5065808;28;20047;-79
2023/10/29 01:45:37;;;;;;;8.25;6.45;;;;;;;;;;5043915;28;20045;-79
2023/10/29 01:48:03;;;;;;;8.93;6.60;;;;;;;;;;5066540;28;20361;-79
2023/10/29 01:50:30;;;;;;;12.73;7.43;;;;;;;;;;5066604;28;20049;-79
2023/10/29 01:52:57;;;;;;;14.50;6.88;;;;;;;;;;5065064;28;20139;-80
2023/10/29 01:55:23;;;;;;;9.05;6.60;;;;;;;;;;5062745;28;20496;-79
2023/10/29 01:57:49;;;;;;;8.23;6.57;;;;;;;;;;5046601;28;20040;-80
2023/10/29 02:00:15;;;;;;;10.18;7.32;;;;;;;;;;5051565;28;20044;-80
2023/10/29 02:02:41;;;;;;;9.52;6.40;;;;;;;;;;5066576;28;20040;-80
2023/10/29 02:05:07;;;;;;;7.05;6.22;;;;;;;;;;5048759;28;20055;-80
2023/10/29 02:07:34;;;;;;;6.85;6.15;;;;;;;;;;5050417;28;20498;-80
2023/10/29 02:10:00;;;;;;;8.77;6.63;;;;;;;;;;5046748;28;20032;-79
2023/10/29 02:12:26;;;;;;;7.72;6.55;;;;;;;;;;5047619;28;20037;-80
2023/10/29 02:14:52;;;;;;;7.10;6.40;;;;;;;;;;5048263;28;20146;-78
2023/10/29 02:17:18;;;;;;;7.15;6.40;;;;;;;;;;5044490;28;20097;-79
2023/10/29 02:19:44;;;;;;;9.18;6.70;;;;;;;;;;5028717;28;20037;-79
2023/10/29 02:22:10;;;;;;;7.95;6.97;;;;;;;;;;5051005;28;20490;-79
2023/10/29 02:24:36;;;;;;;8.38;6.28;;;;;;;;;;5048827;28;20059;-79
2023/10/29 02:27:02;;;;;;;8.18;7.25;;;;;;;;;;5050148;28;20037;-78
2023/10/29 02:29:28;;;;;;;8.38;6.57;;;;;;;;;;5048608;28;20036;-79
2023/10/29 02:31:54;;;;;;;8.77;6.68;;;;;;;;;;5066411;28;20036;-78
2023/10/29 02:34:20;;;;;;;9.52;7.63;;;;;;;;;;5048829;28;20037;-79
2023/10/29 02:36:46;;;;;;;9.80;7.45;;;;;;;;;;5047268;28;20045;-80
2023/10/29 02:39:13;;;;;;;7.65;6.40;;;;;;;;;;5067475;28;20080;-79
2023/10/29 02:41:39;;;;;;;9.07;5.97;;;;;;;;;;5064145;28;20135;-80
2023/10/29 02:44:05;;;;;;;6.95;5.53;;;;;;;;;;5045590;28;20040;-80
2023/10/29 02:46:31;;;;;;;7.93;6.43;;;;;;;;;;5028857;28;20093;-80
2023/10/29 02:48:57;;;;;;;6.88;5.72;;;;;;;;;;5044439;28;20032;-80
2023/10/29 02:51:23;;;;;;;7.18;5.15;;;;;;;;;;5048453;28;20069;-80
2023/10/29 02:53:49;;;;;;;6.32;5.70;;;;;;;;;;5049092;28;20060;-79
2023/10/29 02:56:15;;;;;;;10.52;4.80;;;;;;;;;;5062077;28;21430;-80
2023/10/29 02:58:42;;;;;;;5.90;4.50;;;;;;;;;;5062282;28;20514;-80
2023/10/29 03:01:09;;;;;;;7.63;5.13;;;;;;;;;;5045987;28;20041;-80
2023/10/29 03:03:35;;;;;;;5.93;4.38;;;;;;;;;;5045275;28;20040;-80
2023/10/29 03:06:05;;;;;;;8.77;4.45;;;;;;;;;;5048131;28;20507;-79
2023/10/29 03:08:31;;;;;;;5.07;3.78;;;;;;;;;;5046907;28;20052;-79
2023/10/29 03:10:58;;;;;;;4.97;4.32;;;;;;;;;;5064065;28;20044;-80
2023/10/29 03:13:24;;;;;;;5.28;4.22;;;;;;;;;;5062340;28;20076;-78
2023/10/29 03:15:50;;;;;;;5.20;4.15;;;;;;;;;;5063373;28;20487;-78
2023/10/29 03:18:16;;;;;;;7.10;4.13;;;;;;;;;;5065361;28;20048;-80
2023/10/29 03:20:42;;;;;;;5.80;4.13;;;;;;;;;;5047626;28;20048;-80
2023/10/29 03:23:08;;;;;;;5.30;3.88;;;;;;;;;;5064734;28;20040;-79
2023/10/29 03:25:34;;;;;;;5.95;3.70;;;;;;;;;;5064647;28;20032;-80
2023/10/29 03:28:00;;;;;;;6.20;4.03;;;;;;;;;;5048813;28;20040;-81
2023/10/29 03:30:27;;;;;;;6.03;3.65;;;;;;;;;;5066571;28;20048;-80
2023/10/29 03:32:53;;;;;;;5.20;3.53;;;;;;;;;;5043877;28;20044;-80
2023/10/29 03:35:19;;;;;;;9.05;4.03;;;;;;;;;;5068169;28;20045;-80
2023/10/29 03:37:45;;;;;;;7.38;4.07;;;;;;;;;;5050227;28;20067;-81
2023/10/29 03:40:11;;;;;;;5.55;3.65;;;;;;;;;;5047906;28;20037;-79
2023/10/29 03:42:37;;;;;;;5.05;3.47;;;;;;;;;;5064363;28;20051;-80
2023/10/29 03:45:03;;;;;;;7.40;3.22;;;;;;;;;;5048720;28;20044;-79
2023/10/29 03:47:29;;;;;;;4.75;3.38;;;;;;;;;;5065632;28;20423;-81
2023/10/29 03:49:55;;;;;;;5.15;3.45;;;;;;;;;;5034076;28;20040;-81
2023/10/29 03:52:22;;;;;;;5.97;3.17;;;;;;;;;;5082221;28;20090;-81
2023/10/29 03:54:48;;;;;;;8.32;3.55;;;;;;;;;;5066465;28;20083;-81
2023/10/29 03:57:14;;;;;;;5.05;3.30;;;;;;;;;;5064033;28;20060;-81
2023/10/29 03:59:40;;;;;;;4.30;2.78;;;;;;;;;;5064832;28;20069;-81
2023/10/29 04:02:06;;;;;;;3.22;2.53;;;;;;;;;;5027016;28;20047;-81
2023/10/29 04:04:33;;;;;;;6.25;2.65;;;;;;;;;;5064456;28;20041;-81
2023/10/29 04:07:00;;;;;;;4.50;2.30;;;;;;;;;;5042130;28;20082;-81
2023/10/29 04:09:26;;;;;;;8.55;2.80;;;;;;;;;;5048166;28;20043;-81
2023/10/29 04:11:52;;;;;;;5.20;2.00;;;;;;;;;;5065991;28;20047;-81
2023/10/29 04:14:18;;;;;;;4.22;2.50;;;;;;;;;;5052178;28;20727;-81
2023/10/29 04:16:44;;;;;;;3.70;2.30;;;;;;;;;;5037893;28;20421;-79
2023/10/29 04:19:11;;;;;;;4.80;2.42;;;;;;;;;;5053676;28;20037;-81
2023/10/29 04:21:37;;;;;;;3.78;2.38;;;;;;;;;;5035159;28;20047;-80
2023/10/29 04:24:03;;;;;;;6.30;3.08;;;;;;;;;;5053199;28;20040;-80
2023/10/29 04:26:29;;;;;;;3.60;2.50;;;;;;;;;;5054713;28;20051;-80
2023/10/29 04:28:55;;;;;;;2.55;2.10;;;;;;;;;;5067684;28;20032;-80
2023/10/29 04:31:21;;;;;;;5.97;2.35;;;;;;;;;;5065324;28;20047;-81
2023/10/29 04:33:48;;;;;;;3.95;2.47;;;;;;;;;;5051098;28;20045;-80
2023/10/29 04:36:25;;;;;;;5.50;2.40;;;;;;;;;;5068385;28;20532;-80
2023/10/29 04:38:51;;;;;;;4.15;2.08;;;;;;;;;;5051536;28;20488;-80
2023/10/29 04:41:18;;;;;;;3.67;2.10;;;;;;;;;;5069724;28;21368;-79
2023/10/29 04:43:44;;;;;;;6.75;2.35;;;;;;;;;;5068656;28;20047;-80
2023/10/29 04:46:11;;;;;;;5.10;2.10;;;;;;;;;;5066708;28;20040;-80
2023/10/29 04:48:37;;;;;;;4.45;2.03;;;;;;;;;;5067579;28;20915;-80
2023/10/29 04:51:07;;;;;;;3.15;2.08;;;;;;;;;;5067015;28;20040;-81
2023/10/29 04:53:36;;;;;;;4.80;1.98;;;;;;;;;;5048172;28;20052;-79
2023/10/29 04:56:03;;;;;;;6.88;2.08;;;;;;;;;;5051392;28;20915;-80
2023/10/29 04:58:29;;;;;;;5.85;2.38;;;;;;;;;;5048840;28;20476;-80
2023/10/29 05:00:56;;;;;;;9.82;1.88;;;;;;;;;;5066908;28;20047;-79
2023/10/29 05:03:22;;;;;;;2.50;1.15;;;;;;;;;;5046724;28;20044;-80
2023/10/29 05:05:49;;;;;;;1.67;0.70;;;;;;;;;;5064061;28;20132;-80
2023/10/29 05:08:15;;;;;;;2.47;0.98;;;;;;;;;;5067447;28;20051;-81
2023/10/29 05:10:43;;;;;;;0.70;0.70;;;;;;;;;;5041337;28;20097;-81
2023/10/29 05:13:09;;;;;;;1.98;0.98;;;;;;;;;;5045017;28;20063;-80
2023/10/29 05:15:35;;;;;;;2.95;1.30;;;;;;;;;;5050716;28;20044;-79
2023/10/29 05:18:01;;;;;;;2.15;0.77;;;;;;;;;;5046489;28;20040;-79
2023/10/29 05:20:27;;;;;;;2.63;0.82;;;;;;;;;;5066452;28;20048;-80
2023/10/29 05:22:53;;;;;;;1.80;0.60;;;;;;;;;;5046977;28;21034;-79
2023/10/29 05:25:20;;;;;;;0.90;0.45;;;;;;;;;;5065787;28;20529;-80
2023/10/29 05:27:52;;;;;;;2.20;0.80;;;;;;;;;;5048382;28;20048;-80
2023/10/29 05:30:18;;;;;;;1.17;0.60;;;;;;;;;;5064280;28;20419;-81
2023/10/29 05:32:44;;;;;;;1.80;0.63;;;;;;;;;;5047905;28;20045;-79
2023/10/29 05:35:10;;;;;;;1.50;0.70;;;;;;;;;;5062634;28;20044;-80
2023/10/29 05:37:37;;;;;;;1.70;0.73;;;;;;;;;;5032972;28;20044;-80
2023/10/29 05:40:04;;;;;;;1.10;0.63;;;;;;;;;;5029911;28;20041;-81
2023/10/29 05:42:33;;;;;;;3.08;0.88;;;;;;;;;;5063557;28;20052;-80
2023/10/29 05:44:59;;;;;;;2.80;0.82;;;;;;;;;;5061166;28;20040;-80
2023/10/29 05:47:25;;;;;;;3.30;1.38;;;;;;;;;;5048264;28;20131;-80
2023/10/29 05:49:51;;;;;;;2.72;1.10;;;;;;;;;;5061613;28;20036;-80
2023/10/29 05:52:17;;;;;;;2.30;1.00;;;;;;;;;;5065778;28;20120;-80
2023/10/29 05:54:43;;;;;;;2.50;1.30;;;;;;;;;;5063442;28;20056;-81
2023/10/29 05:57:10;;;;;;;1.88;1.02;;;;;;;;;;5049473;28;20036;-81
2023/10/29 05:59:36;;;;;;;1.73;1.10;;;;;;;;;;5046353;28;20372;-80
2023/10/29 06:02:02;;;;;;;1.95;1.10;;;;;;;;;;5021613;28;20047;-81
2023/10/29 06:04:28;;;;;;;1.65;1.08;;;;;;;;;;5062805;28;20040;-80
2023/10/29 06:06:55;;;;;;;2.55;1.00;;;;;;;;;;5063339;28;20531;-79
2023/10/29 06:09:21;;;;;;;2.50;1.10;;;;;;;;;;5047261;28;20102;-80
2023/10/29 06:11:47;;;;;;;2.47;0.98;;;;;;;;;;5032178;28;20063;-81
2023/10/29 06:14:13;;;;;;;2.72;1.00;;;;;;;;;;5048230;28;20120;-81
2023/10/29 06:16:39;;;;;;;2.22;1.02;;;;;;;;;;5063144;28;20067;-81
2023/10/29 06:19:05;;;;;;;5.00;1.05;;;;;;;;;;5045040;28;20113;-80
2023/10/29 06:21:32;;;;;;;5.18;0.85;;;;;;;;;;5047821;28;20056;-81
2023/10/29 06:23:58;;;;;;;5.03;0.95;;;;;;;;;;5051913;28;20039;-82
2023/10/29 06:26:24;;;;;;;5.32;1.38;;;;;;;;;;5033635;28;20060;-82
2023/10/29 06:28:50;;;;;;;4.30;1.02;;;;;;;;;;5048763;28;20059;-81
2023/10/29 06:31:16;;;;;;;4.78;1.42;;;;;;;;;;5048535;28;20037;-81
2023/10/29 06:33:42;;;;;;;4.72;0.80;;;;;;;;;;5034020;28;20071;-81
2023/10/29 06:36:09;;;;;;;1.98;1.00;;;;;;;;;;5052834;28;20131;-82
2023/10/29 06:38:35;;;;;;;2.20;1.00;;;;;;;;;;5033130;28;20043;-82
2023/10/29 06:41:02;;;;;;;6.00;1.00;;;;;;;;;;5049060;28;20506;-82
2023/10/29 06:43:28;;;;;;;4.45;0.88;;;;;;;;;;5048933;28;20044;-81
2023/10/29 06:45:56;;;;;;;1.85;0.90;;;;;;;;;;5048505;28;20032;-82
2023/10/29 06:48:22;;;;;;;3.65;0.80;;;;;;;;;;5048014;28;20048;-82
2023/10/29 06:50:48;;;;;;;4.60;0.90;;;;;;;;;;5064153;28;20100;-82
2023/10/29 06:53:15;;;;;;;2.38;0.88;;;;;;;;;;5047832;28;20078;-82
2023/10/29 06:55:42;;;;;;;7.20;1.20;;;;;;;;;;5045915;28;20045;-81
2023/10/29 06:58:08;;;;;;;3.83;1.00;;;;;;;;;;5045873;28;20040;-79
2023/10/29 07:00:34;;;;;;;2.53;0.95;;;;;;;;;;5029273;28;20090;-79
2023/10/29 07:03:00;;;;;;;3.50;0.98;;;;;;;;;;5043601;28;20040;-79
2023/10/29 07:05:26;;;;;;;1.70;1.00;;;;;;;;;;5030487;28;20036;-79
2023/10/29 07:07:52;;;;;;;5.60;1.38;;;;;;;;;;5044940;28;20037;-79
2023/10/29 07:10:18;;;;;;;4.53;1.30;;;;;;;;;;5033340;28;20040;-79
2023/10/29 07:12:44;;;;;;;0.98;0.82;;;;;;;;;;5063167;28;20044;-79
2023/10/29 07:15:10;;;;;;;5.32;1.77;;;;;;;;;;5045438;28;20059;-79
2023/10/29 07:17:37;;;;;;;2.60;1.10;;;;;;;;;;5046766;28;20033;-78
2023/10/29 07:20:08;;;;;;;2.33;1.40;;;;;;;;;;5044276;28;20044;-79
2023/10/29 07:22:34;;;;;;;5.70;1.20;;;;;;;;;;5042076;28;20539;-79
2023/10/29 07:25:00;;;;;;;2.33;0.95;;;;;;;;;;5045034;28;20593;-80
2023/10/29 07:27:26;;;;;;;2.70;1.10;;;;;;;;;;5044088;28;20489;-79
2023/10/29 07:29:53;;;;;;;9.00;1.20;;;;;;;;;;5027420;28;20037;-80
2023/10/29 07:32:19;;;;;;;2.72;0.73;;;;;;;;;;5044060;28;20041;-79
2023/10/29 07:34:46;;;;;;;2.70;0.93;;;;;;;;;;5047559;28;20068;-80
2023/10/29 07:37:12;;;;;;;4.47;0.75;;;;;;;;;;5062658;28;20492;-80
2023/10/29 07:39:38;;;;;;;1.40;0.85;;;;;;;;;;5046541;28;20155;-80
2023/10/29 07:42:04;;;;;;;1.15;0.70;;;;;;;;;;5061707;28;20044;-80
2023/10/29 07:44:30;;;;;;;1.23;0.85;;;;;;;;;;5064082;28;20270;-80
2023/10/29 07:46:58;;;;;;;1.90;0.80;;;;;;;;;;5065336;28;20032;-80
2023/10/29 07:49:24;;;;;;;1.90;0.75;;;;;;;;;;5051600;28;20051;-80
2023/10/29 07:51:50;;;;;;;4.85;0.90;;;;;;;;;;5046117;28;20036;-80
2023/10/29 07:54:16;;;;;;;6.25;1.38;;;;;;;;;;5032591;28;20123;-80
2023/10/29 07:56:42;;;;;;;2.72;0.88;;;;;;;;;;5061423;28;20054;-81
2023/10/29 07:59:08;;;;;;;2.10;0.70;;;;;;;;;;5063802;28;20050;-81
2023/10/29 08:01:34;;;;;;;2.65;0.93;;;;;;;;;;5060776;28;20126;-81
2023/10/29 08:04:00;;;;;;;2.25;0.77;;;;;;;;;;5049926;28;20110;-81
2023/10/29 08:06:26;;;;;;;4.53;1.70;;;;;;;;;;5063835;28;20047;-81
2023/10/29 08:08:52;;;;;;;3.55;0.80;;;;;;;;;;5059370;28;20051;-80
2023/10/29 08:11:19;;;;;;;2.40;0.90;;;;;;;;;;5047991;28;20044;-80
2023/10/29 08:13:45;;;;;;;8.45;0.95;;;;;;;;;;5046566;28;20496;-81
2023/10/29 08:16:12;;;;;;;2.72;0.88;;;;;;;;;;5063047;28;20381;-81
2023/10/29 08:18:38;;;;;;;1.92;0.95;;;;;;;;;;5048150;28;20420;-81
2023/10/29 08:21:05;;;;;;;2.35;0.65;;;;;;;;;;5042405;28;20510;-80
2023/10/29 08:23:31;;;;;;;3.58;1.42;;;;;;;;;;5030574;28;20062;-81
2023/10/29 08:25:57;;;;;;;5.18;1.23;;;;;;;;;;5063058;28;20130;-81
2023/10/29 08:28:25;;;;;;;6.15;1.00;;;;;;;;;;5045848;28;20044;-80
2023/10/29 08:30:52;;;;;;;2.53;0.80;;;;;;;;;;5045380;28;20086;-81
2023/10/29 08:33:19;;;;;;;1.98;0.88;;;;;;;;;;5029646;28;20048;-80
2023/10/29 08:35:46;;;;;;;4.30;0.80;;;;;;;;;;5063146;28;20395;-80
2023/10/29 08:38:12;;;;;;;2.83;0.80;;;;;;;;;;5047300;28;20064;-81
2023/10/29 08:40:38;;;;;;;2.50;0.68;;;;;;;;;;5059278;28;20032;-81
2023/10/29 08:43:05;;;;;;;1.45;0.70;;;;;;;;;;5027116;28;20049;-81
2023/10/29 08:45:31;;;;;;;3.30;1.42;;;;;;;;;;5062281;28;20131;-81
2023/10/29 08:47:57;;;;;;;7.55;1.40;;;;;;;;;;5048741;28;20472;-79
2023/10/29 08:50:23;;;;;;;4.82;0.73;;;;;;;;;;5046779;28;20511;-81
2023/10/29 08:52:49;;;;;;;8.55;1.55;;;;;;;;;;5063144;28;20132;-82
2023/10/29 08:55:16;;;;;;;1.85;0.82;;;;;;;;;;5049311;28;20036;-81
2023/10/29 08:57:42;;;;;;;4.10;0.98;;;;;;;;;;5047330;28;20064;-82
2023/10/29 09:00:08;;;;;;;4.53;0.80;;;;;;;;;;5051171;28;20040;-81
2023/10/29 09:02:34;;;;;;;3.35;0.82;;;;;;;;;;5050233;28;20051;-81
2023/10/29 09:05:01;;;;;;;3.55;0.90;;;;;;;;;;5066807;28;20488;-80
2023/10/29 09:07:27;;;;;;;3.97;0.63;;;;;;;;;;5049958;28;20147;-81
2023/10/29 09:09:54;;;;;;;2.30;1.10;;;;;;;;;;5050068;28;20086;-81
2023/10/29 09:12:21;;;;;;;4.15;1.08;;;;;;;;;;5051550;28;20032;-81
2023/10/29 09:14:49;;;;;;;7.40;0.82;;;;;;;;;;5041576;28;20488;-82
2023/10/29 09:17:15;;;;;;;5.93;0.90;;;;;;;;;;5067893;28;21257;-82
2023/10/29 09:19:41;;;;;;;3.40;1.10;;;;;;;;;;5060016;28;20465;-82
2023/10/29 09:22:07;;;;;;;5.50;0.95;;;;;;;;;;5054201;28;20032;-83
2023/10/29 09:24:34;;;;;;;2.30;0.93;;;;;;;;;;5070780;28;20041;-79
2023/10/29 09:27:00;;;;;;;4.95;1.58;;;;;;;;;;5068136;28;20097;-82
2023/10/29 09:29:26;;;;;;;7.78;0.90;;;;;;;;;;5052391;28;20078;-81
2023/10/29 09:31:52;;;;;;;2.25;0.70;;;;;;;;;;5069938;28;20127;-82
2023/10/29 09:34:18;;;;;;;5.70;1.05;;;;;;;;;;5056804;28;20052;-82
2023/10/29 09:36:44;;;;;;;4.05;0.70;;;;;;;;;;5069778;28;20078;-81
2023/10/29 09:39:11;;;;;;;1.25;0.73;;;;;;;;;;5035626;28;20036;-81
2023/10/29 09:41:43;;;;;;;3.03;0.90;;;;;;;;;;5066850;28;20047;-79
2023/10/29 09:44:13;;;;;;;5.72;1.38;;;;;;;;;;5046365;28;20128;-81
2023/10/29 09:46:39;;;;;;;4.25;1.00;;;;;;;;;;5067513;28;20033;-82
2023/10/29 09:49:06;;;;;;;3.33;0.82;;;;;;;;;;5049307;28;20037;-82
2023/10/29 09:51:32;;;;;;;2.28;0.90;;;;;;;;;;5037445;28;20033;-82
2023/10/29 09:53:59;;;;;;;5.53;1.25;;;;;;;;;;5051038;28;20052;-81
2023/10/29 09:56:26;;;;;;;3.65;1.20;;;;;;;;;;5066921;28;20044;-81
2023/10/29 09:58:52;;;;;;;7.20;1.40;;;;;;;;;;5053049;28;20040;-81
2023/10/29 10:01:19;;;;;;;4.20;1.00;;;;;;;;;;5054961;28;20127;-79
2023/10/29 10:03:45;;;;;;;3.22;1.08;;;;;;;;;;5050071;28;20086;-81
2023/10/29 10:06:14;;;;;;;4.57;0.98;;;;;;;;;;5033936;28;20045;-83
2023/10/29 10:08:40;;;;;;;2.70;0.90;;;;;;;;;;5047651;28;20447;-81
2023/10/29 10:11:21;;;;;;;2.70;1.10;;;;;;;;;;5064088;28;20036;-81
2023/10/29 10:13:47;;;;;;;2.22;1.08;;;;;;;;;;5051645;28;20447;-80
2023/10/29 10:16:15;;;;;;;6.38;1.00;;;;;;;;;;5064336;28;20048;-82
2023/10/29 10:18:50;;;;;;;0.90;0.70;;;;;;;;;;5066679;28;20068;-81
2023/10/29 10:21:20;;;;;;;3.22;0.93;;;;;;;;;;5063951;28;20055;-81
2023/10/29 10:23:55;;;;;;;2.10;1.08;;;;;;;;;;5050516;28;20025;-82
2023/10/29 10:26:27;;;;;;;7.40;1.48;;;;;;;;;;5063867;28;20119;-81
2023/10/29 10:28:58;;;;;;;4.28;1.52;;;;;;;;;;5066307;28;20055;-82
2023/10/29 10:31:35;;;;;;;3.50;1.05;;;;;;;;;;5051869;28;20032;-78
2023/10/29 10:34:17;;;;;;;4.32;1.00;;;;;;;;;;5047241;28;20506;-80
2023/10/29 10:36:44;;;;;;;3.65;0.88;;;;;;;;;;5043283;28;20040;-82
2023/10/29 10:39:11;;;;;;;3.28;0.90;;;;;;;;;;5067498;28;20811;-81
2023/10/29 10:41:41;;;;;;;1.80;0.85;;;;;;;;;;5052911;28;20036;-80
2023/10/29 10:44:11;;;;;;;4.13;1.33;;;;;;;;;;5061681;28;20048;-81
2023/10/29 10:46:38;;;;;;;3.33;1.20;;;;;;;;;;5046097;28;20037;-80
2023/10/29 10:49:08;;;;;;;2.83;0.90;;;;;;;;;;5045527;28;20068;-82
2023/10/29 10:51:36;;;;;;;4.45;0.90;;;;;;;;;;5048020;28;20058;-83
2023/10/29 10:54:03;;;;;;;7.65;1.40;;;;;;;;;;5043863;28;20064;-81
2023/10/29 10:56:33;;;;;;;2.33;1.05;;;;;;;;;;5051395;28;20047;-81
2023/10/29 10:58:59;;;;;;;7.28;1.33;;;;;;;;;;5048660;28;20040;-81
2023/10/29 11:01:27;;;;;;;4.15;0.95;;;;;;;;;;5062004;28;20099;-79
2023/10/29 11:03:54;;;;;;;3.10;1.67;;;;;;;;;;5055449;28;20053;-80
2023/10/29 11:06:21;;;;;;;3.20;1.13;;;;;;;;;;5039151;28;20041;-80
2023/10/29 11:08:47;;;;;;;2.72;1.23;;;;;;;;;;5040638;28;20442;-81
2023/10/29 11:11:14;;;;;;;4.28;1.30;;;;;;;;;;5047934;28;20158;-80
2023/10/29 11:13:41;;;;;;;2.00;1.23;;;;;;;;;;5062945;28;20089;-81
2023/10/29 11:16:21;;;;;;;3.55;0.95;;;;;;;;;;5029994;28;20097;-80
2023/10/29 11:18:47;;;;;;;5.03;1.25;;;;;;;;;;5063699;28;20072;-80
2023/10/29 11:21:29;;;;;;;4.88;1.23;;;;;;;;;;5063752;28;20226;-81
2023/10/29 11:24:14;;;;;;;2.75;1.00;;;;;;;;;;5059529;28;20442;-80
2023/10/29 11:26:40;;;;;;;8.32;1.40;;;;;;;;;;5075074;28;20427;-81
2023/10/29 11:29:06;;;;;;;6.95;1.42;;;;;;;;;;5065047;28;20041;-81
2023/10/29 11:31:32;;;;;;;5.65;1.02;;;;;;;;;;5062436;28;20040;-80
2023/10/29 11:33:59;;;;;;;3.65;1.27;;;;;;;;;;5049013;28;20051;-81
2023/10/29 11:36:34;;;;;;;7.18;1.20;;;;;;;;;;5063937;28;20048;-84
2023/10/29 11:39:15;;;;;;;7.22;1.00;;;;;;;;;;5066675;28;20059;-84
2023/10/29 11:41:45;;;;;;;5.90;1.08;;;;;;;;;;5068066;28;20052;-84
2023/10/29 11:44:20;;;;;;;5.80;1.60;;;;;;;;;;5045520;28;20037;-83
2023/10/29 11:47:05;;;;;;;8.93;1.55;;;;;;;;;;5050352;28;20079;-84
2023/10/29 11:49:44;;;;;;;3.50;1.30;;;;;;;;;;5066310;28;20037;-84
2023/10/29 11:52:10;;;;;;;6.75;1.80;;;;;;;;;;5044104;28;20049;-84
2023/10/29 11:54:38;;;;;;;3.53;1.30;;;;;;;;;;5068599;28;20056;-84
2023/10/29 11:57:06;;;;;;;5.65;1.48;;;;;;;;;;5054619;28;20040;-86
2023/10/29 11:59:32;;;;;;;1.83;0.77;;;;;;;;;;5051385;28;20045;-83
2023/10/29 12:01:58;;;;;;;6.95;1.55;;;;;;;;;;5036919;28;20036;-83
2023/10/29 12:04:31;;;;;;;3.25;1.23;;;;;;;;;;5053199;28;20043;-83
2023/10/29 12:06:57;;;;;;;7.45;1.90;;;;;;;;;;5040653;28;20117;-81
2023/10/29 12:09:24;;;;;;;5.78;1.40;;;;;;;;;;5048302;28;20599;-84
2023/10/29 12:11:52;;;;;;;9.88;1.38;;;;;;;;;;5037069;28;20033;-83
2023/10/29 12:14:38;;;;;;;14.55;3.08;;;;;;;;;;5043445;28;20047;-83
2023/10/29 12:17:04;;;;;;;6.30;1.40;;;;;;;;;;5076244;28;20175;-87
2023/10/29 12:19:41;;;;;;;6.38;1.60;;;;;;;;;;5045060;28;20048;-82
2023/10/29 12:22:17;;;;;;;7.78;1.73;;;;;;;;;;5034107;28;20484;-82
2023/10/29 12:24:43;;;;;;;8.32;1.90;;;;;;;;;;5066625;28;20057;-83
2023/10/29 12:27:10;;;;;;;6.40;1.08;;;;;;;;;;5049982;28;20043;-83
2023/10/29 12:29:36;;;;;;;6.57;1.67;;;;;;;;;;5069668;28;20045;-82
2023/10/29 12:32:02;;;;;;;8.57;1.40;;;;;;;;;;5052925;28;20033;-83
2023/10/29 12:34:28;;;;;;;7.32;1.83;;;;;;;;;;5055700;28;20067;-81
2023/10/29 12:36:54;;;;;;;13.13;2.72;;;;;;;;;;5052473;28;20041;-83
2023/10/29 12:39:20;;;;;;;10.98;1.75;;;;;;;;;;5052844;28;20036;-83
2023/10/29 12:41:53;;;;;;;4.63;1.20;;;;;;;;;;5053422;28;20064;-82
2023/10/29 12:44:19;;;;;;;10.82;1.95;;;;;;;;;;5073850;28;20091;-82
2023/10/29 12:46:52;;;;;;;9.40;1.45;;;;;;;;;;5074332;28;20040;-80
2023/10/29 12:49:25;;;;;;;7.07;2.30;;;;;;;;;;5054606;28;20528;-80
2023/10/29 12:51:54;;;;;;;6.47;1.50;;;;;;;;;;5056708;28;20036;-80
2023/10/29 12:54:27;;;;;;;2.80;1.10;;;;;;;;;;5054825;28;20060;-80
2023/10/29 12:57:01;;;;;;;4.57;1.02;;;;;;;;;;5055827;28;20047;-80
2023/10/29 12:59:30;;;;;;;4.47;0.90;;;;;;;;;;5073305;28;20044;-80
2023/10/29 13:01:57;;;;;;;6.15;1.40;;;;;;;;;;5037465;28;20093;-79
2023/10/29 13:04:24;;;;;;;9.45;1.85;;;;;;;;;;5064251;28;20051;-80
2023/10/29 13:06:53;;;;;;;6.97;1.17;;;;;;;;;;5072357;28;20111;-79
2023/10/29 13:09:21;;;;;;;7.80;2.15;;;;;;;;;;5073204;28;20037;-80
2023/10/29 13:11:48;;;;;;;5.32;1.25;;;;;;;;;;5036714;28;20066;-80
2023/10/29 13:14:15;;;;;;;6.30;1.27;;;;;;;;;;5054146;28;20044;-80
2023/10/29 13:16:41;;;;;;;5.40;1.25;;;;;;;;;;5088033;28;20227;-80
2023/10/29 13:19:07;;;;;;;7.60;1.35;;;;;;;;;;5034463;28;20119;-80
2023/10/29 13:21:34;;;;;;;8.00;1.83;;;;;;;;;;5071229;28;20044;-80
2023/10/29 13:24:00;;;;;;;7.55;1.33;;;;;;;;;;5061349;28;20035;-78
2023/10/29 13:26:26;;;;;;;4.18;1.27;;;;;;;;;;5063574;28;20043;-82
2023/10/29 13:28:52;;;;;;;5.03;1.50;;;;;;;;;;5033763;28;20040;-78
2023/10/29 13:31:18;;;;;;;11.23;1.67;;;;;;;;;;5030799;28;20047;-79
2023/10/29 13:33:45;;;;;;;6.80;1.25;;;;;;;;;;5038441;28;20499;-80
2023/10/29 13:36:11;;;;;;;9.18;1.58;;;;;;;;;;5052239;28;20048;-80
2023/10/29 13:38:38;;;;;;;6.50;1.40;;;;;;;;;;5049326;28;20055;-80
2023/10/29 13:41:04;;;;;;;5.68;1.33;;;;;;;;;;5047692;28;20438;-79
2023/10/29 13:43:31;;;;;;;7.40;1.50;;;;;;;;;;5066906;28;20681;-80
2023/10/29 13:46:02;;;;;;;8.70;1.70;;;;;;;;;;5045940;28;20543;-80
2023/10/29 13:48:28;;;;;;;9.93;1.73;;;;;;;;;;5050399;28;20177;-80
2023/10/29 13:50:55;;;;;;;10.60;1.65;;;;;;;;;;5066563;28;20056;-80
2023/10/29 13:53:21;;;;;;;6.03;1.73;;;;;;;;;;5062614;28;20520;-80
2023/10/29 13:55:47;;;;;;;9.63;1.58;;;;;;;;;;5050803;28;20044;-80
2023/10/29 13:58:13;;;;;;;5.82;1.55;;;;;;;;;;5065428;28;20048;-80
2023/10/29 14:00:39;;;;;;;11.77;1.88;;;;;;;;;;5049953;28;20655;-80
2023/10/29 14:03:06;;;;;;;6.72;1.67;;;;;;;;;;5060061;28;20036;-81
2023/10/29 14:05:32;;;;;;;4.50;1.52;;;;;;;;;;5065158;28;20064;-80
2023/10/29 14:07:59;;;;;;;14.18;2.70;;;;;;;;;;5063536;28;20032;-80
2023/10/29 14:10:25;;;;;;;6.70;1.35;;;;;;;;;;5045884;28;20045;-80
2023/10/29 14:12:51;;;;;;;5.53;1.58;;;;;;;;;;5048591;28;20108;-81
2023/10/29 14:15:18;;;;;;;8.07;1.70;;;;;;;;;;5066035;28;20101;-80
2023/10/29 14:17:44;;;;;;;5.55;1.60;;;;;;;;;;5050011;28;20040;-80
2023/10/29 14:20:10;;;;;;;5.70;1.30;;;;;;;;;;5048203;28;20163;-80
2023/10/29 14:22:36;;;;;;;7.32;1.50;;;;;;;;;;5040152;28;20415;-78
2023/10/29 14:25:04;;;;;;;7.40;1.20;;;;;;;;;;5063339;28;20442;-81
2023/10/29 14:27:30;;;;;;;6.50;1.83;;;;;;;;;;5063523;28;20064;-80
2023/10/29 14:29:56;;;;;;;13.73;1.70;;;;;;;;;;5048332;28;20500;-80
2023/10/29 14:32:23;;;;;;;5.88;1.40;;;;;;;;;;5047941;28;20055;-80
2023/10/29 14:34:49;;;;;;;8.55;1.70;;;;;;;;;;5058266;28;20114;-80
2023/10/29 14:37:16;;;;;;;6.18;1.63;;;;;;;;;;5046836;28;20039;-78
2023/10/29 14:39:42;;;;;;;11.02;2.15;;;;;;;;;;5062888;28;20032;-80
2023/10/29 14:42:08;;;;;;;8.98;1.90;;;;;;;;;;5048957;28;20928;-80